sensor_id;sensor_type;location;lat;lon;timestamp;pressure;altitude;pressure_sealevel;temperature;humidity
71504;BME280;59323;50.874;7.028;2022-08-01T00:02:04;101257.94;;;21.78;65.03
71504;BME280;59323;50.874;7.028;2022-08-01T00:04:29;101246.19;;;21.74;64.66
71504;BME280;59323;50.874;7.028;2022-08-01T00:06:54;101252.41;;;21.78;64.36
71504;BME280;59323;50.874;7.028;2022-08-01T00:09:20;101250.50;;;21.75;64.87
71504;BME280;59323;50.874;7.028;2022-08-01T00:11:45;101261.66;;;21.71;65.11
71504;BME280;59323;50.874;7.028;2022-08-01T00:14:11;101242.00;;;21.66;65.09
71504;BME280;59323;50.874;7.028;2022-08-01T00:16:36;101255.34;;;21.71;65.12
71504;BME280;59323;50.874;7.028;2022-08-01T00:19:02;101249.09;;;21.67;64.90
71504;BME280;59323;50.874;7.028;2022-08-01T00:21:28;101249.81;;;21.71;64.85
71504;BME280;59323;50.874;7.028;2022-08-01T00:23:53;101243.91;;;21.69;65.10
71504;BME280;59323;50.874;7.028;2022-08-01T00:26:19;101251.00;;;21.70;65.35
71504;BME280;59323;50.874;7.028;2022-08-01T00:28:45;101257.31;;;21.70;65.10
71504;BME280;59323;50.874;7.028;2022-08-01T00:31:10;101242.78;;;21.66;65.02
71504;BME280;59323;50.874;7.028;2022-08-01T00:33:35;101251.44;;;21.68;64.87
71504;BME280;59323;50.874;7.028;2022-08-01T00:36:01;101245.03;;;21.71;65.25
71504;BME280;59323;50.874;7.028;2022-08-01T00:38:26;101252.72;;;21.64;65.80
71504;BME280;59323;50.874;7.028;2022-08-01T00:40:52;101250.09;;;21.57;65.82
71504;BME280;59323;50.874;7.028;2022-08-01T00:43:17;101242.88;;;21.63;65.92
71504;BME280;59323;50.874;7.028;2022-08-01T00:45:43;101244.94;;;21.59;65.70
71504;BME280;59323;50.874;7.028;2022-08-01T00:48:08;101241.38;;;21.58;66.03
71504;BME280;59323;50.874;7.028;2022-08-01T00:50:34;101246.13;;;21.58;65.87
71504;BME280;59323;50.874;7.028;2022-08-01T00:53:00;101252.38;;;21.62;65.63
71504;BME280;59323;50.874;7.028;2022-08-01T00:55:28;101242.94;;;21.59;65.84
71504;BME280;59323;50.874;7.028;2022-08-01T00:58:01;101243.16;;;21.48;65.79
71504;BME280;59323;50.874;7.028;2022-08-01T01:00:27;101244.22;;;21.55;65.93
71504;BME280;59323;50.874;7.028;2022-08-01T01:02:52;101256.69;;;21.63;65.98
71504;BME280;59323;50.874;7.028;2022-08-01T01:05:18;101257.91;;;21.62;66.13
71504;BME280;59323;50.874;7.028;2022-08-01T01:10:46;101269.75;;;21.62;66.52
71504;BME280;59323;50.874;7.028;2022-08-01T01:13:20;101246.81;;;21.42;67.24
71504;BME280;59323;50.874;7.028;2022-08-01T01:15:55;101260.31;;;21.40;68.49
71504;BME280;59323;50.874;7.028;2022-08-01T01:18:38;101264.84;;;21.30;70.89
71504;BME280;59323;50.874;7.028;2022-08-01T01:29:25;101264.91;;;20.83;73.39
71504;BME280;59323;50.874;7.028;2022-08-01T01:32:13;101266.41;;;20.88;72.60
71504;BME280;59323;50.874;7.028;2022-08-01T01:34:47;101270.84;;;20.82;72.96
71504;BME280;59323;50.874;7.028;2022-08-01T01:37:17;101272.00;;;20.84;72.36
71504;BME280;59323;50.874;7.028;2022-08-01T01:39:46;101262.66;;;20.75;73.00
71504;BME280;59323;50.874;7.028;2022-08-01T01:42:16;101277.59;;;20.77;73.07
71504;BME280;59323;50.874;7.028;2022-08-01T01:44:43;101268.25;;;20.71;72.92
71504;BME280;59323;50.874;7.028;2022-08-01T01:47:12;101277.72;;;20.70;73.19
71504;BME280;59323;50.874;7.028;2022-08-01T01:49:40;101282.78;;;20.75;73.21
71504;BME280;59323;50.874;7.028;2022-08-01T01:52:07;101277.66;;;20.74;72.91
71504;BME280;59323;50.874;7.028;2022-08-01T01:54:37;101283.13;;;20.77;73.05
71504;BME280;59323;50.874;7.028;2022-08-01T01:57:05;101263.97;;;20.67;72.81
71504;BME280;59323;50.874;7.028;2022-08-01T01:59:35;101278.88;;;20.73;72.70
71504;BME280;59323;50.874;7.028;2022-08-01T02:02:03;101279.22;;;20.75;72.94
71504;BME280;59323;50.874;7.028;2022-08-01T02:04:30;101271.00;;;20.71;72.93
71504;BME280;59323;50.874;7.028;2022-08-01T02:06:56;101271.06;;;20.68;73.05
71504;BME280;59323;50.874;7.028;2022-08-01T02:09:23;101271.44;;;20.70;72.65
71504;BME280;59323;50.874;7.028;2022-08-01T02:11:52;101267.16;;;20.65;73.15
71504;BME280;59323;50.874;7.028;2022-08-01T02:14:22;101271.00;;;20.71;72.99
71504;BME280;59323;50.874;7.028;2022-08-01T02:16:49;101264.34;;;20.69;73.21
71504;BME280;59323;50.874;7.028;2022-08-01T02:19:18;101260.88;;;20.65;73.34
71504;BME280;59323;50.874;7.028;2022-08-01T02:24:21;101260.88;;;20.65;73.03
71504;BME280;59323;50.874;7.028;2022-08-01T02:26:53;101258.81;;;20.69;73.19
71504;BME280;59323;50.874;7.028;2022-08-01T02:29:29;101259.31;;;20.64;72.72
71504;BME280;59323;50.874;7.028;2022-08-01T02:31:58;101251.00;;;20.64;72.91
71504;BME280;59323;50.874;7.028;2022-08-01T02:34:28;101262.72;;;20.71;73.00
71504;BME280;59323;50.874;7.028;2022-08-01T02:36:58;101256.47;;;20.67;72.67
71504;BME280;59323;50.874;7.028;2022-08-01T02:39:27;101265.91;;;20.70;72.95
71504;BME280;59323;50.874;7.028;2022-08-01T02:41:57;101247.84;;;20.65;72.95
71504;BME280;59323;50.874;7.028;2022-08-01T02:44:28;101264.28;;;20.72;72.79
71504;BME280;59323;50.874;7.028;2022-08-01T02:47:00;101250.59;;;20.65;73.21
71504;BME280;59323;50.874;7.028;2022-08-01T02:49:31;101247.13;;;20.61;73.14
71504;BME280;59323;50.874;7.028;2022-08-01T02:52:05;101255.03;;;20.59;73.14
71504;BME280;59323;50.874;7.028;2022-08-01T02:54:33;101246.75;;;20.59;73.04
71504;BME280;59323;50.874;7.028;2022-08-01T02:57:00;101255.03;;;20.59;72.84
71504;BME280;59323;50.874;7.028;2022-08-01T02:59:27;101262.06;;;20.64;73.23
71504;BME280;59323;50.874;7.028;2022-08-01T03:01:59;101250.78;;;20.54;73.40
71504;BME280;59323;50.874;7.028;2022-08-01T03:04:25;101262.13;;;20.60;73.05
71504;BME280;59323;50.874;7.028;2022-08-01T03:06:58;101264.53;;;20.58;73.05
71504;BME280;59323;50.874;7.028;2022-08-01T03:09:27;101259.72;;;20.62;73.34
71504;BME280;59323;50.874;7.028;2022-08-01T03:11:56;101250.00;;;20.54;73.45
71504;BME280;59323;50.874;7.028;2022-08-01T03:14:23;101269.25;;;20.57;73.17
71504;BME280;59323;50.874;7.028;2022-08-01T03:16:51;101270.84;;;20.58;73.32
71504;BME280;59323;50.874;7.028;2022-08-01T03:19:18;101269.31;;;20.54;73.10
71504;BME280;59323;50.874;7.028;2022-08-01T03:21:46;101266.56;;;20.54;73.47
71504;BME280;59323;50.874;7.028;2022-08-01T03:24:13;101263.81;;;20.54;73.61
71504;BME280;59323;50.874;7.028;2022-08-01T03:26:39;101267.75;;;20.53;73.52
71504;BME280;59323;50.874;7.028;2022-08-01T03:29:11;101267.28;;;20.58;73.42
71504;BME280;59323;50.874;7.028;2022-08-01T03:31:40;101272.81;;;20.58;73.58
71504;BME280;59323;50.874;7.028;2022-08-01T03:34:08;101261.59;;;20.45;73.47
71504;BME280;59323;50.874;7.028;2022-08-01T03:36:41;101271.31;;;20.53;73.55
71504;BME280;59323;50.874;7.028;2022-08-01T03:39:09;101267.47;;;20.47;73.77
71504;BME280;59323;50.874;7.028;2022-08-01T03:41:44;101274.13;;;20.50;73.75
71504;BME280;59323;50.874;7.028;2022-08-01T03:44:16;101258.13;;;20.38;73.93
71504;BME280;59323;50.874;7.028;2022-08-01T03:46:53;101271.84;;;20.45;74.08
71504;BME280;59323;50.874;7.028;2022-08-01T03:49:23;101272.94;;;20.51;74.16
71504;BME280;59323;50.874;7.028;2022-08-01T03:51:51;101278.94;;;20.46;73.48
71504;BME280;59323;50.874;7.028;2022-08-01T03:54:21;101265.22;;;20.39;73.85
71504;BME280;59323;50.874;7.028;2022-08-01T03:56:49;101274.59;;;20.45;74.14
71504;BME280;59323;50.874;7.028;2022-08-01T03:59:17;101272.69;;;20.42;73.74
71504;BME280;59323;50.874;7.028;2022-08-01T04:01:45;101264.34;;;20.45;74.00
71504;BME280;59323;50.874;7.028;2022-08-01T04:04:12;101272.56;;;20.49;74.11
71504;BME280;59323;50.874;7.028;2022-08-01T04:06:38;101275.69;;;20.51;74.04
71504;BME280;59323;50.874;7.028;2022-08-01T04:09:04;101270.28;;;20.44;73.75
71504;BME280;59323;50.874;7.028;2022-08-01T04:11:29;101266.81;;;20.40;74.05
71504;BME280;59323;50.874;7.028;2022-08-01T04:13:56;101268.25;;;20.48;74.32
71504;BME280;59323;50.874;7.028;2022-08-01T04:16:22;101272.56;;;20.49;74.22
71504;BME280;59323;50.874;7.028;2022-08-01T04:18:48;101266.25;;;20.48;73.96
71504;BME280;59323;50.874;7.028;2022-08-01T04:21:20;101281.63;;;20.49;74.44
71504;BME280;59323;50.874;7.028;2022-08-01T04:23:49;101277.38;;;20.45;74.33
71504;BME280;59323;50.874;7.028;2022-08-01T04:26:17;101277.88;;;20.36;74.76
71504;BME280;59323;50.874;7.028;2022-08-01T04:28:44;101289.28;;;20.38;73.97
71504;BME280;59323;50.874;7.028;2022-08-01T04:31:12;101280.63;;;20.36;74.46
71504;BME280;59323;50.874;7.028;2022-08-01T04:33:42;101290.81;;;20.43;74.73
71504;BME280;59323;50.874;7.028;2022-08-01T04:36:10;101287.22;;;20.46;74.47
71504;BME280;59323;50.874;7.028;2022-08-01T04:38:39;101288.81;;;20.43;74.37
71504;BME280;59323;50.874;7.028;2022-08-01T04:41:06;101287.69;;;20.41;74.48
71504;BME280;59323;50.874;7.028;2022-08-01T04:43:32;101276.38;;;20.32;74.37
71504;BME280;59323;50.874;7.028;2022-08-01T04:45:58;101294.34;;;20.43;74.92
71504;BME280;59323;50.874;7.028;2022-08-01T04:48:24;101294.41;;;20.40;74.38
71504;BME280;59323;50.874;7.028;2022-08-01T04:50:51;101301.00;;;20.46;74.06
71504;BME280;59323;50.874;7.028;2022-08-01T04:53:18;101298.31;;;20.42;74.71
71504;BME280;59323;50.874;7.028;2022-08-01T04:55:45;101309.97;;;20.53;74.59
71504;BME280;59323;50.874;7.028;2022-08-01T04:58:11;101302.94;;;20.49;74.40
71504;BME280;59323;50.874;7.028;2022-08-01T05:00:37;101310.31;;;20.55;74.34
71504;BME280;59323;50.874;7.028;2022-08-01T05:03:03;101304.88;;;20.52;74.38
71504;BME280;59323;50.874;7.028;2022-08-01T05:05:28;101306.06;;;20.51;74.57
71504;BME280;59323;50.874;7.028;2022-08-01T05:07:55;101305.03;;;20.41;74.50
71504;BME280;59323;50.874;7.028;2022-08-01T05:10:21;101318.00;;;20.44;74.69
71504;BME280;59323;50.874;7.028;2022-08-01T05:12:46;101314.47;;;20.44;74.97
71504;BME280;59323;50.874;7.028;2022-08-01T05:15:11;101309.66;;;20.48;74.91
71504;BME280;59323;50.874;7.028;2022-08-01T05:17:37;101308.94;;;20.44;74.80
71504;BME280;59323;50.874;7.028;2022-08-01T05:20:03;101308.09;;;20.47;74.93
71504;BME280;59323;50.874;7.028;2022-08-01T05:22:29;101314.34;;;20.51;74.98
71504;BME280;59323;50.874;7.028;2022-08-01T05:24:54;101312.00;;;20.49;75.09
71504;BME280;59323;50.874;7.028;2022-08-01T05:27:19;101307.72;;;20.45;74.59
71504;BME280;59323;50.874;7.028;2022-08-01T05:29:45;101322.09;;;20.60;74.57
71504;BME280;59323;50.874;7.028;2022-08-01T05:32:10;101317.09;;;20.51;74.74
71504;BME280;59323;50.874;7.028;2022-08-01T05:34:36;101328.47;;;20.56;74.88
71504;BME280;59323;50.874;7.028;2022-08-01T05:37:01;101328.03;;;20.58;74.75
71504;BME280;59323;50.874;7.028;2022-08-01T05:39:27;101328.09;;;20.54;74.94
71504;BME280;59323;50.874;7.028;2022-08-01T05:41:53;101325.41;;;20.51;75.13
71504;BME280;59323;50.874;7.028;2022-08-01T05:44:18;101318.31;;;20.50;74.94
71504;BME280;59323;50.874;7.028;2022-08-01T05:46:44;101328.88;;;20.55;75.23
71504;BME280;59323;50.874;7.028;2022-08-01T05:49:09;101326.13;;;20.55;75.01
71504;BME280;59323;50.874;7.028;2022-08-01T05:51:44;101331.63;;;20.55;75.28
71504;BME280;59323;50.874;7.028;2022-08-01T05:54:09;101332.06;;;20.53;74.83
71504;BME280;59323;50.874;7.028;2022-08-01T05:56:35;101334.34;;;20.58;74.94
71504;BME280;59323;50.874;7.028;2022-08-01T05:59:03;101333.97;;;20.56;74.99
71504;BME280;59323;50.874;7.028;2022-08-01T06:01:28;101333.19;;;20.56;75.03
71504;BME280;59323;50.874;7.028;2022-08-01T06:03:54;101341.84;;;20.58;75.38
71504;BME280;59323;50.874;7.028;2022-08-01T06:06:20;101347.75;;;20.60;75.36
71504;BME280;59323;50.874;7.028;2022-08-01T06:08:46;101334.41;;;20.55;75.44
71504;BME280;59323;50.874;7.028;2022-08-01T06:11:12;101331.75;;;20.48;75.25
71504;BME280;59323;50.874;7.028;2022-08-01T06:13:40;101338.78;;;20.52;75.17
71504;BME280;59323;50.874;7.028;2022-08-01T06:16:05;101326.47;;;20.57;75.06
71504;BME280;59323;50.874;7.028;2022-08-01T06:18:30;101333.09;;;20.63;75.02
71504;BME280;59323;50.874;7.028;2022-08-01T06:20:59;101338.97;;;20.65;75.31
71504;BME280;59323;50.874;7.028;2022-08-01T06:23:24;101331.94;;;20.61;74.94
71504;BME280;59323;50.874;7.028;2022-08-01T06:25:53;101331.59;;;20.58;75.44
71504;BME280;59323;50.874;7.028;2022-08-01T06:28:23;101336.22;;;20.65;75.03
71504;BME280;59323;50.874;7.028;2022-08-01T06:30:51;101331.34;;;20.73;75.37
71504;BME280;59323;50.874;7.028;2022-08-01T06:33:19;101335.84;;;20.90;74.41
71504;BME280;59323;50.874;7.028;2022-08-01T06:35:47;101336.84;;;21.00;74.44
71504;BME280;59323;50.874;7.028;2022-08-01T06:38:12;101349.22;;;21.15;73.03
71504;BME280;59323;50.874;7.028;2022-08-01T06:40:38;101349.22;;;21.15;73.70
71504;BME280;59323;50.874;7.028;2022-08-01T06:43:04;101340.56;;;21.13;72.92
71504;BME280;59323;50.874;7.028;2022-08-01T06:45:29;101349.47;;;21.24;72.57
71504;BME280;59323;50.874;7.028;2022-08-01T06:47:54;101346.66;;;21.28;72.77
71504;BME280;59323;50.874;7.028;2022-08-01T06:50:23;101330.53;;;21.23;73.27
71504;BME280;59323;50.874;7.028;2022-08-01T06:52:48;101330.41;;;21.30;72.74
71504;BME280;59323;50.874;7.028;2022-08-01T06:55:15;101340.00;;;21.45;71.98
71504;BME280;59323;50.874;7.028;2022-08-01T06:57:48;101335.50;;;21.55;70.69
71504;BME280;59323;50.874;7.028;2022-08-01T07:00:14;101341.25;;;21.64;69.83
71504;BME280;59323;50.874;7.028;2022-08-01T07:02:41;101326.56;;;21.67;69.14
71504;BME280;59323;50.874;7.028;2022-08-01T07:05:07;101334.44;;;21.68;69.58
71504;BME280;59323;50.874;7.028;2022-08-01T07:07:36;101337.69;;;21.63;69.00
71504;BME280;59323;50.874;7.028;2022-08-01T07:10:01;101337.91;;;21.52;70.09
71504;BME280;59323;50.874;7.028;2022-08-01T07:12:28;101347.34;;;21.55;69.92
71504;BME280;59323;50.874;7.028;2022-08-01T07:14:53;101341.88;;;21.51;70.26
71504;BME280;59323;50.874;7.028;2022-08-01T07:17:19;101331.59;;;21.52;69.75
71504;BME280;59323;50.874;7.028;2022-08-01T07:19:47;101352.72;;;21.62;69.92
71504;BME280;59323;50.874;7.028;2022-08-01T07:22:12;101356.69;;;21.81;69.59
71504;BME280;59323;50.874;7.028;2022-08-01T07:24:40;101345.47;;;21.88;68.93
71504;BME280;59323;50.874;7.028;2022-08-01T07:27:06;101347.25;;;22.18;68.73
71504;BME280;59323;50.874;7.028;2022-08-01T07:29:32;101349.56;;;22.39;66.63
71504;BME280;59323;50.874;7.028;2022-08-01T07:31:57;101349.56;;;22.56;66.35
71504;BME280;59323;50.874;7.028;2022-08-01T07:34:24;101353.47;;;22.58;66.06
71504;BME280;59323;50.874;7.028;2022-08-01T07:36:52;101359.69;;;22.62;66.32
71504;BME280;59323;50.874;7.028;2022-08-01T07:39:18;101356.94;;;22.62;66.96
71504;BME280;59323;50.874;7.028;2022-08-01T07:41:44;101346.38;;;22.57;65.86
71504;BME280;59323;50.874;7.028;2022-08-01T07:44:09;101351.13;;;22.57;65.92
71504;BME280;59323;50.874;7.028;2022-08-01T07:46:35;101352.84;;;22.51;66.61
71504;BME280;59323;50.874;7.028;2022-08-01T07:49:01;101352.47;;;22.32;66.53
71504;BME280;59323;50.874;7.028;2022-08-01T07:51:26;101367.09;;;22.33;66.83
71504;BME280;59323;50.874;7.028;2022-08-01T07:53:51;101359.31;;;22.28;66.96
71504;BME280;59323;50.874;7.028;2022-08-01T07:56:17;101368.66;;;22.34;66.67
71504;BME280;59323;50.874;7.028;2022-08-01T07:58:42;101360.72;;;22.36;66.18
71504;BME280;59323;50.874;7.028;2022-08-01T08:01:08;101363.06;;;22.37;65.92
71504;BME280;59323;50.874;7.028;2022-08-01T08:03:36;101358.38;;;22.34;65.78
71504;BME280;59323;50.874;7.028;2022-08-01T08:06:04;101366.59;;;22.38;65.99
71504;BME280;59323;50.874;7.028;2022-08-01T08:08:35;101365.31;;;22.42;66.11
71504;BME280;59323;50.874;7.028;2022-08-01T08:11:01;101366.63;;;22.54;66.23
71504;BME280;59323;50.874;7.028;2022-08-01T08:13:26;101344.53;;;22.67;66.10
71504;BME280;59323;50.874;7.028;2022-08-01T08:16:02;101363.38;;;22.92;64.04
71504;BME280;59323;50.874;7.028;2022-08-01T08:18:28;101363.13;;;23.02;62.76
71504;BME280;59323;50.874;7.028;2022-08-01T08:20:53;101373.53;;;22.98;62.80
71504;BME280;59323;50.874;7.028;2022-08-01T08:23:18;101372.75;;;22.98;62.77
71504;BME280;59323;50.874;7.028;2022-08-01T08:26:02;101368.66;;;23.02;63.98
71504;BME280;59323;50.874;7.028;2022-08-01T08:28:28;101363.91;;;23.03;62.06
71504;BME280;59323;50.874;7.028;2022-08-01T08:30:53;101367.88;;;23.02;62.19
71504;BME280;59323;50.874;7.028;2022-08-01T08:33:20;101376.81;;;22.93;62.43
71504;BME280;59323;50.874;7.028;2022-08-01T08:35:54;101371.34;;;22.90;63.21
71504;BME280;59323;50.874;7.028;2022-08-01T08:38:20;101370.50;;;22.93;62.81
71504;BME280;59323;50.874;7.028;2022-08-01T08:40:45;101365.63;;;22.97;61.76
71504;BME280;59323;50.874;7.028;2022-08-01T08:43:17;101363.63;;;23.14;61.49
71504;BME280;59323;50.874;7.028;2022-08-01T08:45:46;101372.69;;;23.30;61.21
71504;BME280;59323;50.874;7.028;2022-08-01T08:48:12;101372.69;;;23.30;60.75
71504;BME280;59323;50.874;7.028;2022-08-01T08:50:41;101372.34;;;23.28;60.71
71504;BME280;59323;50.874;7.028;2022-08-01T08:53:11;101384.56;;;23.31;62.77
71504;BME280;59323;50.874;7.028;2022-08-01T08:55:44;101379.88;;;23.28;62.32
71504;BME280;59323;50.874;7.028;2022-08-01T09:01:12;101386.56;;;23.30;61.49
71504;BME280;59323;50.874;7.028;2022-08-01T09:03:41;101386.22;;;23.28;61.04
71504;BME280;59323;50.874;7.028;2022-08-01T09:06:07;101388.31;;;23.24;61.76
71504;BME280;59323;50.874;7.028;2022-08-01T09:08:33;101389.53;;;23.23;63.17
71504;BME280;59323;50.874;7.028;2022-08-01T09:10:58;101389.78;;;23.29;63.32
71504;BME280;59323;50.874;7.028;2022-08-01T09:13:24;101391.56;;;23.35;62.57
71504;BME280;59323;50.874;7.028;2022-08-01T09:15:54;101392.88;;;23.47;61.47
71504;BME280;59323;50.874;7.028;2022-08-01T09:18:39;101386.81;;;23.36;61.17
71504;BME280;59323;50.874;7.028;2022-08-01T09:21:19;101392.78;;;23.34;61.25
71504;BME280;59323;50.874;7.028;2022-08-01T09:23:52;101399.31;;;23.28;60.98
71504;BME280;59323;50.874;7.028;2022-08-01T09:26:29;101392.97;;;23.27;61.45
71504;BME280;59323;50.874;7.028;2022-08-01T09:28:56;101386.75;;;23.23;61.46
71504;BME280;59323;50.874;7.028;2022-08-01T09:31:21;101401.47;;;23.36;61.54
71504;BME280;59323;50.874;7.028;2022-08-01T09:34:00;101398.19;;;23.42;60.59
71504;BME280;59323;50.874;7.028;2022-08-01T09:39:14;101396.75;;;23.66;60.87
71504;BME280;59323;50.874;7.028;2022-08-01T09:41:40;101396.59;;;23.86;59.60
71504;BME280;59323;50.874;7.028;2022-08-01T09:44:08;101397.84;;;23.97;59.23
71504;BME280;59323;50.874;7.028;2022-08-01T09:46:34;101395.03;;;24.26;59.59
71504;BME280;59323;50.874;7.028;2022-08-01T09:49:04;101381.19;;;24.52;57.92
71504;BME280;59323;50.874;7.028;2022-08-01T09:51:36;101390.84;;;24.85;56.71
71504;BME280;59323;50.874;7.028;2022-08-01T09:54:03;101392.50;;;24.95;55.39
71504;BME280;59323;50.874;7.028;2022-08-01T09:56:37;101393.50;;;25.14;57.26
71504;BME280;59323;50.874;7.028;2022-08-01T09:59:03;101394.22;;;25.27;56.13
71504;BME280;59323;50.874;7.028;2022-08-01T10:01:48;101397.78;;;25.28;54.33
71504;BME280;59323;50.874;7.028;2022-08-01T10:04:21;101397.00;;;25.27;54.29
71504;BME280;59323;50.874;7.028;2022-08-01T10:06:50;101394.38;;;25.11;53.63
71504;BME280;59323;50.874;7.028;2022-08-01T10:09:29;101387.97;;;25.02;55.29
71504;BME280;59323;50.874;7.028;2022-08-01T10:11:55;101391.19;;;25.00;55.02
71504;BME280;59323;50.874;7.028;2022-08-01T10:14:24;101388.94;;;25.08;54.78
71504;BME280;59323;50.874;7.028;2022-08-01T10:16:51;101395.53;;;25.36;55.33
71504;BME280;59323;50.874;7.028;2022-08-01T10:19:22;101388.00;;;25.36;55.36
71504;BME280;59323;50.874;7.028;2022-08-01T10:21:50;101381.41;;;25.30;53.71
71504;BME280;59323;50.874;7.028;2022-08-01T10:24:19;101391.19;;;25.47;52.95
71504;BME280;59323;50.874;7.028;2022-08-01T10:26:47;101369.38;;;25.46;52.46
71504;BME280;59323;50.874;7.028;2022-08-01T10:29:13;101383.16;;;25.49;52.65
71504;BME280;59323;50.874;7.028;2022-08-01T10:31:41;101379.75;;;25.67;53.28
71504;BME280;59323;50.874;7.028;2022-08-01T10:34:07;101381.44;;;25.86;51.53
71504;BME280;59323;50.874;7.028;2022-08-01T10:36:34;101381.28;;;25.90;50.13
71504;BME280;59323;50.874;7.028;2022-08-01T10:39:05;101379.25;;;26.03;51.05
71504;BME280;59323;50.874;7.028;2022-08-01T10:41:34;101376.91;;;26.02;49.65
71504;BME280;59323;50.874;7.028;2022-08-01T10:44:03;101370.66;;;25.98;50.50
71504;BME280;59323;50.874;7.028;2022-08-01T10:46:30;101362.75;;;26.18;50.24
71504;BME280;59323;50.874;7.028;2022-08-01T10:49:06;101369.41;;;26.20;48.92
71504;BME280;59323;50.874;7.028;2022-08-01T10:51:35;101373.06;;;26.08;49.65
71504;BME280;59323;50.874;7.028;2022-08-01T10:54:06;101362.28;;;26.19;50.55
71504;BME280;59323;50.874;7.028;2022-08-01T10:56:48;101361.00;;;26.33;47.91
71504;BME280;59323;50.874;7.028;2022-08-01T10:59:20;101355.84;;;26.32;48.62
71504;BME280;59323;50.874;7.028;2022-08-01T11:01:58;101369.06;;;26.40;50.22
71504;BME280;59323;50.874;7.028;2022-08-01T11:07:17;101371.38;;;26.11;50.16
71504;BME280;59323;50.874;7.028;2022-08-01T11:10:09;101374.44;;;26.04;50.26
71504;BME280;59323;50.874;7.028;2022-08-01T11:12:42;101367.31;;;25.81;49.96
71504;BME280;59323;50.874;7.028;2022-08-01T11:17:40;101370.41;;;25.61;50.60
71504;BME280;59323;50.874;7.028;2022-08-01T11:20:19;101362.00;;;25.52;50.75
71504;BME280;59323;50.874;7.028;2022-08-01T11:50:51;101355.97;;;26.28;48.62
71504;BME280;59323;50.874;7.028;2022-08-01T11:54:04;101334.59;;;26.25;48.89
71504;BME280;59323;50.874;7.028;2022-08-01T11:56:47;101353.25;;;26.37;47.93
71504;BME280;59323;50.874;7.028;2022-08-01T12:06:49;101352.19;;;26.13;49.28
71504;BME280;59323;50.874;7.028;2022-08-01T12:09:43;101348.97;;;26.14;48.40
71504;BME280;59323;50.874;7.028;2022-08-01T12:18:48;101366.44;;;26.15;49.26
71504;BME280;59323;50.874;7.028;2022-08-01T12:21:30;101355.25;;;26.06;49.37
71504;BME280;59323;50.874;7.028;2022-08-01T12:24:07;101359.91;;;26.09;48.37
71504;BME280;59323;50.874;7.028;2022-08-01T12:26:42;101350.94;;;26.05;46.86
71504;BME280;59323;50.874;7.028;2022-08-01T12:29:08;101358.28;;;26.20;46.75
71504;BME280;59323;50.874;7.028;2022-08-01T12:31:41;101348.09;;;26.27;46.09
71504;BME280;59323;50.874;7.028;2022-08-01T12:34:25;101343.97;;;26.40;46.11
71504;BME280;59323;50.874;7.028;2022-08-01T12:37:17;101355.69;;;26.66;46.49
71504;BME280;59323;50.874;7.028;2022-08-01T12:39:44;101341.16;;;26.80;45.44
71504;BME280;59323;50.874;7.028;2022-08-01T12:42:11;101352.81;;;26.97;43.63
71504;BME280;59323;50.874;7.028;2022-08-01T12:44:38;101340.72;;;26.82;45.00
71504;BME280;59323;50.874;7.028;2022-08-01T12:47:08;101347.50;;;26.72;45.64
71504;BME280;59323;50.874;7.028;2022-08-01T12:49:46;101343.25;;;26.49;46.69
71504;BME280;59323;50.874;7.028;2022-08-01T12:52:25;101348.63;;;26.43;46.45
71504;BME280;59323;50.874;7.028;2022-08-01T12:55:29;101350.41;;;26.28;46.97
71504;BME280;59323;50.874;7.028;2022-08-01T12:58:21;101348.47;;;26.07;46.51
71504;BME280;59323;50.874;7.028;2022-08-01T13:01:03;101345.41;;;25.92;48.10
71504;BME280;59323;50.874;7.028;2022-08-01T13:04:05;101354.63;;;26.02;47.48
71504;BME280;59323;50.874;7.028;2022-08-01T13:06:30;101349.13;;;26.20;46.58
71504;BME280;59323;50.874;7.028;2022-08-01T13:09:07;101344.53;;;26.26;45.78
71504;BME280;59323;50.874;7.028;2022-08-01T13:11:38;101343.44;;;26.23;44.11
71504;BME280;59323;50.874;7.028;2022-08-01T13:14:10;101351.28;;;26.16;44.36
71504;BME280;59323;50.874;7.028;2022-08-01T13:17:08;101351.88;;;26.11;44.55
71504;BME280;59323;50.874;7.028;2022-08-01T13:19:52;101360.25;;;26.11;44.34
71504;BME280;59323;50.874;7.028;2022-08-01T13:22:31;101346.31;;;26.11;44.89
71504;BME280;59323;50.874;7.028;2022-08-01T13:25:17;101351.75;;;26.14;44.58
71504;BME280;59323;50.874;7.028;2022-08-01T13:27:43;101343.84;;;26.13;45.06
71504;BME280;59323;50.874;7.028;2022-08-01T13:30:23;101347.28;;;26.17;44.58
71504;BME280;59323;50.874;7.028;2022-08-01T13:33:23;101340.75;;;26.11;44.92
71504;BME280;59323;50.874;7.028;2022-08-01T13:36:50;101339.31;;;26.06;45.48
71504;BME280;59323;50.874;7.028;2022-08-01T13:39:45;101350.97;;;26.14;45.69
71504;BME280;59323;50.874;7.028;2022-08-01T13:42:15;101342.28;;;26.12;45.28
71504;BME280;59323;50.874;7.028;2022-08-01T13:44:42;101342.28;;;26.12;44.76
71504;BME280;59323;50.874;7.028;2022-08-01T13:47:10;101357.47;;;26.11;45.31
71504;BME280;59323;50.874;7.028;2022-08-01T13:49:36;101364.59;;;26.12;44.74
71504;BME280;59323;50.874;7.028;2022-08-01T13:52:05;101361.28;;;26.04;44.80
71504;BME280;59323;50.874;7.028;2022-08-01T13:54:33;101342.03;;;25.97;45.64
71504;BME280;59323;50.874;7.028;2022-08-01T13:57:05;101345.59;;;25.98;44.89
71504;BME280;59323;50.874;7.028;2022-08-01T13:59:30;101346.06;;;25.96;45.60
71504;BME280;59323;50.874;7.028;2022-08-01T14:01:56;101351.44;;;25.90;45.01
71504;BME280;59323;50.874;7.028;2022-08-01T14:04:21;101350.16;;;25.82;44.96
71504;BME280;59323;50.874;7.028;2022-08-01T14:06:52;101340.06;;;25.76;44.49
71504;BME280;59323;50.874;7.028;2022-08-01T14:09:18;101333.25;;;25.77;44.91
71504;BME280;59323;50.874;7.028;2022-08-01T14:12:04;101342.38;;;25.77;44.62